sensor_id;sensor_type;location;lat;lon;timestamp;P1;durP1;ratioP1;P2;durP2;ratioP2
64959;SDS011;51487;52.266;10.542;2023-07-29T00:00:56;4.75;;;3.22;;
64959;SDS011;51487;52.266;10.542;2023-07-29T00:03:22;3.65;;;2.80;;
64959;SDS011;51487;52.266;10.542;2023-07-29T00:05:47;4.68;;;2.95;;
64959;SDS011;51487;52.266;10.542;2023-07-29T00:08:13;3.47;;;2.72;;
64959;SDS011;51487;52.266;10.542;2023-07-29T00:10:39;4.53;;;2.95;;
64959;SDS011;51487;52.266;10.542;2023-07-29T00:13:05;4.55;;;2.58;;
64959;SDS011;51487;52.266;10.542;2023-07-29T00:15:32;4.60;;;2.92;;
64959;SDS011;51487;52.266;10.542;2023-07-29T00:17:58;4.35;;;2.80;;
64959;SDS011;51487;52.266;10.542;2023-07-29T00:20:23;4.20;;;2.65;;
64959;SDS011;51487;52.266;10.542;2023-07-29T00:22:49;3.75;;;2.80;;
64959;SDS011;51487;52.266;10.542;2023-07-29T00:25:17;3.90;;;2.55;;
64959;SDS011;51487;52.266;10.542;2023-07-29T00:27:43;3.50;;;2.55;;
64959;SDS011;51487;52.266;10.542;2023-07-29T00:30:08;5.40;;;2.30;;
64959;SDS011;51487;52.266;10.542;2023-07-29T00:32:34;2.42;;;2.17;;
64959;SDS011;51487;52.266;10.542;2023-07-29T00:35:01;3.55;;;2.40;;
64959;SDS011;51487;52.266;10.542;2023-07-29T00:37:27;2.50;;;2.30;;
64959;SDS011;51487;52.266;10.542;2023-07-29T00:39:53;3.33;;;2.33;;
64959;SDS011;51487;52.266;10.542;2023-07-29T00:42:19;3.90;;;2.70;;
64959;SDS011;51487;52.266;10.542;2023-07-29T00:44:45;3.08;;;2.55;;
64959;SDS011;51487;52.266;10.542;2023-07-29T00:47:10;4.10;;;2.33;;
64959;SDS011;51487;52.266;10.542;2023-07-29T00:49:40;2.58;;;2.17;;
64959;SDS011;51487;52.266;10.542;2023-07-29T00:52:06;2.55;;;2.30;;
64959;SDS011;51487;52.266;10.542;2023-07-29T00:54:31;3.08;;;2.13;;
64959;SDS011;51487;52.266;10.542;2023-07-29T00:56:57;3.80;;;2.50;;
64959;SDS011;51487;52.266;10.542;2023-07-29T00:59:23;3.97;;;2.28;;
64959;SDS011;51487;52.266;10.542;2023-07-29T01:01:48;2.75;;;2.15;;
64959;SDS011;51487;52.266;10.542;2023-07-29T01:04:14;3.92;;;2.45;;
64959;SDS011;51487;52.266;10.542;2023-07-29T01:09:55;5.38;;;2.47;;
64959;SDS011;51487;52.266;10.542;2023-07-29T01:15:55;3.13;;;2.30;;
64959;SDS011;51487;52.266;10.542;2023-07-29T01:18:30;3.13;;;2.20;;
64959;SDS011;51487;52.266;10.542;2023-07-29T01:21:03;4.90;;;2.40;;
64959;SDS011;51487;52.266;10.542;2023-07-29T01:23:33;4.07;;;2.53;;
64959;SDS011;51487;52.266;10.542;2023-07-29T01:26:00;3.63;;;2.40;;
64959;SDS011;51487;52.266;10.542;2023-07-29T01:28:27;3.60;;;2.28;;
64959;SDS011;51487;52.266;10.542;2023-07-29T01:30:57;2.78;;;2.30;;
64959;SDS011;51487;52.266;10.542;2023-07-29T01:34:41;5.10;;;2.50;;
64959;SDS011;51487;52.266;10.542;2023-07-29T01:36:51;6.60;;;2.20;;
64959;SDS011;51487;52.266;10.542;2023-07-29T01:39:22;3.42;;;2.15;;
64959;SDS011;51487;52.266;10.542;2023-07-29T01:41:51;3.28;;;2.60;;
64959;SDS011;51487;52.266;10.542;2023-07-29T01:44:17;4.40;;;2.30;;
64959;SDS011;51487;52.266;10.542;2023-07-29T01:46:44;4.32;;;2.30;;
64959;SDS011;51487;52.266;10.542;2023-07-29T01:49:10;3.67;;;2.40;;
64959;SDS011;51487;52.266;10.542;2023-07-29T01:51:35;2.17;;;1.90;;
64959;SDS011;51487;52.266;10.542;2023-07-29T01:54:01;2.65;;;2.10;;
64959;SDS011;51487;52.266;10.542;2023-07-29T01:56:26;3.25;;;2.25;;
64959;SDS011;51487;52.266;10.542;2023-07-29T01:58:52;2.90;;;2.13;;
64959;SDS011;51487;52.266;10.542;2023-07-29T02:01:17;3.40;;;2.22;;
64959;SDS011;51487;52.266;10.542;2023-07-29T02:03:43;2.90;;;1.95;;
64959;SDS011;51487;52.266;10.542;2023-07-29T02:06:08;2.38;;;1.80;;
64959;SDS011;51487;52.266;10.542;2023-07-29T02:08:34;2.20;;;2.00;;
64959;SDS011;51487;52.266;10.542;2023-07-29T02:11:00;1.77;;;1.67;;
64959;SDS011;51487;52.266;10.542;2023-07-29T02:13:26;3.03;;;1.90;;
64959;SDS011;51487;52.266;10.542;2023-07-29T02:15:51;2.63;;;1.90;;
64959;SDS011;51487;52.266;10.542;2023-07-29T02:18:17;3.13;;;1.83;;
64959;SDS011;51487;52.266;10.542;2023-07-29T02:20:42;2.00;;;1.80;;
64959;SDS011;51487;52.266;10.542;2023-07-29T02:23:14;2.50;;;1.92;;
64959;SDS011;51487;52.266;10.542;2023-07-29T02:25:42;2.63;;;1.85;;
64959;SDS011;51487;52.266;10.542;2023-07-29T02:28:07;3.88;;;2.00;;
64959;SDS011;51487;52.266;10.542;2023-07-29T02:30:33;2.30;;;1.60;;
64959;SDS011;51487;52.266;10.542;2023-07-29T02:32:58;2.13;;;1.92;;
64959;SDS011;51487;52.266;10.542;2023-07-29T02:35:26;2.33;;;1.70;;
64959;SDS011;51487;52.266;10.542;2023-07-29T02:37:54;2.30;;;1.70;;
64959;SDS011;51487;52.266;10.542;2023-07-29T02:40:19;3.33;;;1.73;;
64959;SDS011;51487;52.266;10.542;2023-07-29T02:42:46;2.13;;;1.60;;
64959;SDS011;51487;52.266;10.542;2023-07-29T02:45:11;3.50;;;1.88;;
64959;SDS011;51487;52.266;10.542;2023-07-29T02:47:37;2.38;;;1.50;;
64959;SDS011;51487;52.266;10.542;2023-07-29T02:50:03;2.83;;;2.15;;
64959;SDS011;51487;52.266;10.542;2023-07-29T02:52:29;3.75;;;1.90;;
64959;SDS011;51487;52.266;10.542;2023-07-29T02:54:55;3.05;;;1.90;;
64959;SDS011;51487;52.266;10.542;2023-07-29T02:57:21;3.70;;;1.52;;
64959;SDS011;51487;52.266;10.542;2023-07-29T02:59:46;2.22;;;1.67;;
64959;SDS011;51487;52.266;10.542;2023-07-29T03:02:12;2.90;;;1.80;;
64959;SDS011;51487;52.266;10.542;2023-07-29T03:04:37;2.00;;;1.80;;
64959;SDS011;51487;52.266;10.542;2023-07-29T03:07:03;2.45;;;1.98;;
64959;SDS011;51487;52.266;10.542;2023-07-29T03:09:28;2.75;;;1.70;;
64959;SDS011;51487;52.266;10.542;2023-07-29T03:11:54;3.00;;;1.70;;
64959;SDS011;51487;52.266;10.542;2023-07-29T03:14:20;2.92;;;1.80;;
64959;SDS011;51487;52.266;10.542;2023-07-29T03:16:46;1.92;;;1.75;;
64959;SDS011;51487;52.266;10.542;2023-07-29T03:19:12;1.70;;;1.60;;
64959;SDS011;51487;52.266;10.542;2023-07-29T03:21:37;1.70;;;1.60;;
64959;SDS011;51487;52.266;10.542;2023-07-29T03:24:03;2.90;;;1.88;;
64959;SDS011;51487;52.266;10.542;2023-07-29T03:26:29;3.10;;;1.63;;
64959;SDS011;51487;52.266;10.542;2023-07-29T03:28:54;2.40;;;1.70;;
64959;SDS011;51487;52.266;10.542;2023-07-29T03:31:20;2.80;;;1.50;;
64959;SDS011;51487;52.266;10.542;2023-07-29T03:33:45;1.60;;;1.50;;
64959;SDS011;51487;52.266;10.542;2023-07-29T03:36:11;3.75;;;1.60;;
64959;SDS011;51487;52.266;10.542;2023-07-29T03:38:36;2.42;;;1.75;;
64959;SDS011;51487;52.266;10.542;2023-07-29T03:41:05;2.10;;;1.70;;
64959;SDS011;51487;52.266;10.542;2023-07-29T03:43:33;1.50;;;1.40;;
64959;SDS011;51487;52.266;10.542;2023-07-29T03:45:59;3.92;;;2.25;;
64959;SDS011;51487;52.266;10.542;2023-07-29T03:48:25;4.70;;;2.03;;
64959;SDS011;51487;52.266;10.542;2023-07-29T03:50:51;2.55;;;1.83;;
64959;SDS011;51487;52.266;10.542;2023-07-29T03:53:16;3.58;;;1.98;;
64959;SDS011;51487;52.266;10.542;2023-07-29T03:55:42;6.10;;;2.00;;
64959;SDS011;51487;52.266;10.542;2023-07-29T03:58:08;2.83;;;1.92;;
64959;SDS011;51487;52.266;10.542;2023-07-29T04:00:34;4.20;;;2.05;;
64959;SDS011;51487;52.266;10.542;2023-07-29T04:02:59;4.30;;;1.77;;
64959;SDS011;51487;52.266;10.542;2023-07-29T04:05:25;4.10;;;2.20;;
64959;SDS011;51487;52.266;10.542;2023-07-29T04:07:51;6.78;;;2.15;;
64959;SDS011;51487;52.266;10.542;2023-07-29T04:10:18;3.13;;;1.90;;
64959;SDS011;51487;52.266;10.542;2023-07-29T04:12:43;4.05;;;1.90;;
64959;SDS011;51487;52.266;10.542;2023-07-29T04:15:09;3.08;;;1.80;;
64959;SDS011;51487;52.266;10.542;2023-07-29T04:17:35;5.75;;;2.00;;
64959;SDS011;51487;52.266;10.542;2023-07-29T04:20:01;3.63;;;2.10;;
64959;SDS011;51487;52.266;10.542;2023-07-29T04:22:27;4.00;;;2.28;;
64959;SDS011;51487;52.266;10.542;2023-07-29T04:24:53;3.63;;;1.83;;
64959;SDS011;51487;52.266;10.542;2023-07-29T04:27:18;2.35;;;1.70;;
64959;SDS011;51487;52.266;10.542;2023-07-29T04:29:44;2.22;;;1.88;;
64959;SDS011;51487;52.266;10.542;2023-07-29T04:32:10;4.00;;;1.90;;
64959;SDS011;51487;52.266;10.542;2023-07-29T04:34:35;5.28;;;1.90;;
64959;SDS011;51487;52.266;10.542;2023-07-29T04:37:01;2.45;;;1.48;;
64959;SDS011;51487;52.266;10.542;2023-07-29T04:39:26;3.53;;;1.85;;
64959;SDS011;51487;52.266;10.542;2023-07-29T04:41:52;2.90;;;1.70;;
64959;SDS011;51487;52.266;10.542;2023-07-29T04:44:17;3.55;;;1.58;;
64959;SDS011;51487;52.266;10.542;2023-07-29T04:46:43;2.30;;;1.70;;
64959;SDS011;51487;52.266;10.542;2023-07-29T04:49:08;5.32;;;1.50;;
64959;SDS011;51487;52.266;10.542;2023-07-29T04:51:34;3.20;;;1.50;;
64959;SDS011;51487;52.266;10.542;2023-07-29T04:53:59;1.55;;;1.42;;
64959;SDS011;51487;52.266;10.542;2023-07-29T04:56:25;2.28;;;1.70;;
64959;SDS011;51487;52.266;10.542;2023-07-29T04:58:51;2.35;;;1.60;;
64959;SDS011;51487;52.266;10.542;2023-07-29T05:01:17;3.42;;;1.40;;
64959;SDS011;51487;52.266;10.542;2023-07-29T05:03:43;1.83;;;1.50;;
64959;SDS011;51487;52.266;10.542;2023-07-29T05:06:09;1.50;;;1.40;;
64959;SDS011;51487;52.266;10.542;2023-07-29T05:08:34;1.67;;;1.48;;
64959;SDS011;51487;52.266;10.542;2023-07-29T05:11:00;1.98;;;1.40;;
64959;SDS011;51487;52.266;10.542;2023-07-29T05:13:25;1.70;;;1.50;;
64959;SDS011;51487;52.266;10.542;2023-07-29T05:15:51;1.83;;;1.40;;
64959;SDS011;51487;52.266;10.542;2023-07-29T05:18:17;2.25;;;1.50;;
64959;SDS011;51487;52.266;10.542;2023-07-29T05:20:43;2.70;;;1.45;;
64959;SDS011;51487;52.266;10.542;2023-07-29T05:23:08;3.83;;;1.45;;
64959;SDS011;51487;52.266;10.542;2023-07-29T05:25:34;1.60;;;1.30;;
64959;SDS011;51487;52.266;10.542;2023-07-29T05:28:00;2.05;;;1.40;;
64959;SDS011;51487;52.266;10.542;2023-07-29T05:30:26;1.83;;;1.40;;
64959;SDS011;51487;52.266;10.542;2023-07-29T05:32:56;1.40;;;1.30;;
64959;SDS011;51487;52.266;10.542;2023-07-29T05:35:22;1.48;;;1.38;;
64959;SDS011;51487;52.266;10.542;2023-07-29T05:37:48;1.60;;;1.50;;
64959;SDS011;51487;52.266;10.542;2023-07-29T05:40:14;1.30;;;1.20;;
64959;SDS011;51487;52.266;10.542;2023-07-29T05:42:39;3.75;;;1.30;;
64959;SDS011;51487;52.266;10.542;2023-07-29T05:45:05;2.05;;;1.50;;
64959;SDS011;51487;52.266;10.542;2023-07-29T05:47:32;1.40;;;1.30;;
64959;SDS011;51487;52.266;10.542;2023-07-29T05:49:57;2.35;;;1.50;;
64959;SDS011;51487;52.266;10.542;2023-07-29T05:52:23;2.60;;;1.42;;
64959;SDS011;51487;52.266;10.542;2023-07-29T05:54:51;1.58;;;1.40;;
64959;SDS011;51487;52.266;10.542;2023-07-29T05:57:16;1.30;;;1.20;;
64959;SDS011;51487;52.266;10.542;2023-07-29T05:59:43;2.00;;;1.35;;
64959;SDS011;51487;52.266;10.542;2023-07-29T06:02:08;1.60;;;1.50;;
64959;SDS011;51487;52.266;10.542;2023-07-29T06:04:34;2.45;;;1.50;;
64959;SDS011;51487;52.266;10.542;2023-07-29T06:07:00;2.70;;;1.73;;
64959;SDS011;51487;52.266;10.542;2023-07-29T06:09:25;2.13;;;1.30;;
64959;SDS011;51487;52.266;10.542;2023-07-29T06:11:51;3.05;;;1.65;;
64959;SDS011;51487;52.266;10.542;2023-07-29T06:14:16;1.92;;;1.40;;
64959;SDS011;51487;52.266;10.542;2023-07-29T06:16:42;2.38;;;1.50;;
64959;SDS011;51487;52.266;10.542;2023-07-29T06:19:08;2.55;;;1.52;;
64959;SDS011;51487;52.266;10.542;2023-07-29T06:21:34;1.65;;;1.40;;
64959;SDS011;51487;52.266;10.542;2023-07-29T06:24:00;2.75;;;1.27;;
64959;SDS011;51487;52.266;10.542;2023-07-29T06:26:26;2.85;;;1.50;;
64959;SDS011;51487;52.266;10.542;2023-07-29T06:28:52;3.83;;;2.13;;
64959;SDS011;51487;52.266;10.542;2023-07-29T06:31:18;5.00;;;2.15;;
64959;SDS011;51487;52.266;10.542;2023-07-29T06:33:43;3.00;;;1.60;;
64959;SDS011;51487;52.266;10.542;2023-07-29T06:36:10;5.75;;;2.03;;
64959;SDS011;51487;52.266;10.542;2023-07-29T06:38:36;3.38;;;1.90;;
64959;SDS011;51487;52.266;10.542;2023-07-29T06:41:03;4.35;;;2.30;;
64959;SDS011;51487;52.266;10.542;2023-07-29T06:43:29;7.28;;;2.45;;
64959;SDS011;51487;52.266;10.542;2023-07-29T06:45:55;4.88;;;2.45;;
64959;SDS011;51487;52.266;10.542;2023-07-29T06:48:20;4.20;;;2.17;;
64959;SDS011;51487;52.266;10.542;2023-07-29T06:50:46;6.88;;;2.00;;
64959;SDS011;51487;52.266;10.542;2023-07-29T06:53:11;3.70;;;2.10;;
64959;SDS011;51487;52.266;10.542;2023-07-29T06:55:37;3.60;;;2.40;;
64959;SDS011;51487;52.266;10.542;2023-07-29T06:58:02;6.30;;;2.22;;
64959;SDS011;51487;52.266;10.542;2023-07-29T07:00:28;3.45;;;1.88;;
64959;SDS011;51487;52.266;10.542;2023-07-29T07:02:54;5.07;;;2.25;;
64959;SDS011;51487;52.266;10.542;2023-07-29T07:05:19;4.13;;;2.10;;
64959;SDS011;51487;52.266;10.542;2023-07-29T07:07:45;4.03;;;1.90;;
64959;SDS011;51487;52.266;10.542;2023-07-29T07:10:10;3.67;;;1.70;;
64959;SDS011;51487;52.266;10.542;2023-07-29T07:12:36;7.80;;;1.98;;
64959;SDS011;51487;52.266;10.542;2023-07-29T07:15:02;2.33;;;1.73;;
64959;SDS011;51487;52.266;10.542;2023-07-29T07:17:28;2.95;;;1.80;;
64959;SDS011;51487;52.266;10.542;2023-07-29T07:19:53;5.28;;;2.10;;
64959;SDS011;51487;52.266;10.542;2023-07-29T07:22:19;7.10;;;2.33;;
64959;SDS011;51487;52.266;10.542;2023-07-29T07:24:44;4.60;;;1.98;;
64959;SDS011;51487;52.266;10.542;2023-07-29T07:27:10;4.47;;;1.98;;
64959;SDS011;51487;52.266;10.542;2023-07-29T07:29:36;4.35;;;2.00;;
64959;SDS011;51487;52.266;10.542;2023-07-29T07:32:01;2.55;;;1.42;;
64959;SDS011;51487;52.266;10.542;2023-07-29T07:34:27;2.13;;;1.48;;
64959;SDS011;51487;52.266;10.542;2023-07-29T07:36:53;5.85;;;1.75;;
64959;SDS011;51487;52.266;10.542;2023-07-29T07:39:18;2.08;;;1.55;;
64959;SDS011;51487;52.266;10.542;2023-07-29T07:41:44;3.00;;;1.50;;
64959;SDS011;51487;52.266;10.542;2023-07-29T07:44:10;2.20;;;1.38;;
64959;SDS011;51487;52.266;10.542;2023-07-29T07:46:37;4.82;;;1.70;;
64959;SDS011;51487;52.266;10.542;2023-07-29T07:49:03;3.17;;;1.48;;
64959;SDS011;51487;52.266;10.542;2023-07-29T07:51:28;5.57;;;1.60;;
64959;SDS011;51487;52.266;10.542;2023-07-29T07:53:55;1.63;;;1.20;;
64959;SDS011;51487;52.266;10.542;2023-07-29T07:56:21;3.55;;;1.30;;
64959;SDS011;51487;52.266;10.542;2023-07-29T07:58:46;2.28;;;1.40;;
64959;SDS011;51487;52.266;10.542;2023-07-29T08:01:12;1.85;;;1.25;;
64959;SDS011;51487;52.266;10.542;2023-07-29T08:03:37;2.20;;;1.30;;
64959;SDS011;51487;52.266;10.542;2023-07-29T08:06:03;1.67;;;1.50;;
64959;SDS011;51487;52.266;10.542;2023-07-29T08:08:29;1.50;;;1.30;;
64959;SDS011;51487;52.266;10.542;2023-07-29T08:10:56;1.35;;;1.17;;
64959;SDS011;51487;52.266;10.542;2023-07-29T08:13:22;2.95;;;1.40;;
64959;SDS011;51487;52.266;10.542;2023-07-29T08:15:51;3.17;;;1.40;;
64959;SDS011;51487;52.266;10.542;2023-07-29T08:18:18;3.08;;;1.52;;
64959;SDS011;51487;52.266;10.542;2023-07-29T08:20:54;2.08;;;1.30;;
64959;SDS011;51487;52.266;10.542;2023-07-29T08:23:25;1.40;;;1.30;;
64959;SDS011;51487;52.266;10.542;2023-07-29T08:25:52;1.20;;;1.10;;
64959;SDS011;51487;52.266;10.542;2023-07-29T08:28:21;2.00;;;1.40;;
64959;SDS011;51487;52.266;10.542;2023-07-29T08:30:47;4.00;;;1.20;;
64959;SDS011;51487;52.266;10.542;2023-07-29T08:33:13;2.03;;;1.30;;
64959;SDS011;51487;52.266;10.542;2023-07-29T08:35:40;2.45;;;1.10;;
64959;SDS011;51487;52.266;10.542;2023-07-29T08:38:05;3.50;;;1.50;;
64959;SDS011;51487;52.266;10.542;2023-07-29T08:40:31;6.00;;;2.45;;
64959;SDS011;51487;52.266;10.542;2023-07-29T08:43:01;3.38;;;1.48;;
64959;SDS011;51487;52.266;10.542;2023-07-29T08:45:30;4.00;;;1.50;;
64959;SDS011;51487;52.266;10.542;2023-07-29T08:48:06;1.77;;;1.30;;
64959;SDS011;51487;52.266;10.542;2023-07-29T08:50:35;2.33;;;1.33;;
64959;SDS011;51487;52.266;10.542;2023-07-29T08:53:05;3.15;;;1.80;;
64959;SDS011;51487;52.266;10.542;2023-07-29T08:55:32;5.60;;;2.42;;
64959;SDS011;51487;52.266;10.542;2023-07-29T08:57:59;4.90;;;2.60;;
64959;SDS011;51487;52.266;10.542;2023-07-29T09:00:26;4.70;;;2.22;;
64959;SDS011;51487;52.266;10.542;2023-07-29T09:02:52;4.38;;;1.63;;
64959;SDS011;51487;52.266;10.542;2023-07-29T09:05:20;2.03;;;1.40;;
64959;SDS011;51487;52.266;10.542;2023-07-29T09:07:47;1.52;;;1.40;;
64959;SDS011;51487;52.266;10.542;2023-07-29T09:10:16;2.97;;;1.50;;
64959;SDS011;51487;52.266;10.542;2023-07-29T09:12:46;2.35;;;1.20;;
64959;SDS011;51487;52.266;10.542;2023-07-29T09:15:12;1.98;;;1.25;;
64959;SDS011;51487;52.266;10.542;2023-07-29T09:17:37;2.35;;;0.93;;
64959;SDS011;51487;52.266;10.542;2023-07-29T09:20:06;2.97;;;1.60;;
64959;SDS011;51487;52.266;10.542;2023-07-29T09:22:35;2.72;;;1.48;;
64959;SDS011;51487;52.266;10.542;2023-07-29T09:25:00;3.17;;;1.40;;
64959;SDS011;51487;52.266;10.542;2023-07-29T09:27:26;1.95;;;1.40;;
64959;SDS011;51487;52.266;10.542;2023-07-29T09:29:56;2.67;;;1.58;;
64959;SDS011;51487;52.266;10.542;2023-07-29T09:32:23;3.45;;;1.45;;
64959;SDS011;51487;52.266;10.542;2023-07-29T09:34:50;1.73;;;1.15;;
64959;SDS011;51487;52.266;10.542;2023-07-29T09:37:17;4.85;;;1.60;;
64959;SDS011;51487;52.266;10.542;2023-07-29T09:39:47;3.83;;;1.15;;
64959;SDS011;51487;52.266;10.542;2023-07-29T09:42:21;3.33;;;1.40;;
64959;SDS011;51487;52.266;10.542;2023-07-29T09:44:48;1.88;;;1.30;;
64959;SDS011;51487;52.266;10.542;2023-07-29T09:47:22;2.00;;;1.30;;
64959;SDS011;51487;52.266;10.542;2023-07-29T09:49:51;3.92;;;1.70;;
64959;SDS011;51487;52.266;10.542;2023-07-29T09:52:21;5.85;;;1.75;;
64959;SDS011;51487;52.266;10.542;2023-07-29T09:54:48;1.30;;;1.02;;
64959;SDS011;51487;52.266;10.542;2023-07-29T09:57:14;2.25;;;1.58;;
64959;SDS011;51487;52.266;10.542;2023-07-29T09:59:52;2.28;;;1.10;;
64959;SDS011;51487;52.266;10.542;2023-07-29T10:02:20;40.05;;;7.32;;
64959;SDS011;51487;52.266;10.542;2023-07-29T10:04:46;14.32;;;3.22;;
64959;SDS011;51487;52.266;10.542;2023-07-29T10:07:12;11.13;;;2.78;;
64959;SDS011;51487;52.266;10.542;2023-07-29T10:09:40;12.43;;;3.60;;
64959;SDS011;51487;52.266;10.542;2023-07-29T10:12:09;8.20;;;2.80;;
64959;SDS011;51487;52.266;10.542;2023-07-29T10:14:36;6.28;;;2.20;;
64959;SDS011;51487;52.266;10.542;2023-07-29T10:17:04;3.35;;;1.65;;
64959;SDS011;51487;52.266;10.542;2023-07-29T10:19:31;3.63;;;1.45;;
64959;SDS011;51487;52.266;10.542;2023-07-29T10:22:01;4.78;;;1.67;;
64959;SDS011;51487;52.266;10.542;2023-07-29T10:24:32;3.15;;;1.20;;
64959;SDS011;51487;52.266;10.542;2023-07-29T10:26:59;1.95;;;1.40;;
64959;SDS011;51487;52.266;10.542;2023-07-29T10:29:34;11.45;;;2.42;;
64959;SDS011;51487;52.266;10.542;2023-07-29T10:32:07;5.10;;;1.52;;
64959;SDS011;51487;52.266;10.542;2023-07-29T10:34:36;10.45;;;1.75;;
64959;SDS011;51487;52.266;10.542;2023-07-29T10:37:07;5.65;;;1.67;;
64959;SDS011;51487;52.266;10.542;2023-07-29T10:39:39;6.30;;;1.98;;
64959;SDS011;51487;52.266;10.542;2023-07-29T10:42:16;1.40;;;1.30;;
64959;SDS011;51487;52.266;10.542;2023-07-29T10:47:17;1.58;;;1.35;;
64959;SDS011;51487;52.266;10.542;2023-07-29T10:49:54;3.08;;;1.90;;
64959;SDS011;51487;52.266;10.542;2023-07-29T10:52:30;3.17;;;1.30;;
64959;SDS011;51487;52.266;10.542;2023-07-29T10:54:59;3.50;;;1.63;;
64959;SDS011;51487;52.266;10.542;2023-07-29T11:00:06;3.85;;;1.90;;
64959;SDS011;51487;52.266;10.542;2023-07-29T11:02:36;3.03;;;1.80;;
64959;SDS011;51487;52.266;10.542;2023-07-29T11:05:07;4.47;;;2.55;;
64959;SDS011;51487;52.266;10.542;2023-07-29T11:07:45;2.47;;;1.95;;
64959;SDS011;51487;52.266;10.542;2023-07-29T11:10:13;3.83;;;2.40;;
64959;SDS011;51487;52.266;10.542;2023-07-29T11:12:50;2.33;;;1.90;;
64959;SDS011;51487;52.266;10.542;2023-07-29T11:17:48;1.90;;;1.80;;
64959;SDS011;51487;52.266;10.542;2023-07-29T11:22:55;4.13;;;2.28;;
64959;SDS011;51487;52.266;10.542;2023-07-29T11:25:23;5.85;;;3.33;;
64959;SDS011;51487;52.266;10.542;2023-07-29T11:27:54;4.30;;;3.20;;
64959;SDS011;51487;52.266;10.542;2023-07-29T11:30:22;5.85;;;3.35;;
64959;SDS011;51487;52.266;10.542;2023-07-29T11:32:48;4.03;;;3.22;;
64959;SDS011;51487;52.266;10.542;2023-07-29T11:35:15;6.00;;;3.80;;
64959;SDS011;51487;52.266;10.542;2023-07-29T11:37:44;5.75;;;2.78;;
64959;SDS011;51487;52.266;10.542;2023-07-29T11:40:16;5.28;;;3.03;;
64959;SDS011;51487;52.266;10.542;2023-07-29T11:42:43;4.80;;;3.83;;
64959;SDS011;51487;52.266;10.542;2023-07-29T11:45:11;5.03;;;4.00;;
64959;SDS011;51487;52.266;10.542;2023-07-29T11:47:37;4.70;;;3.42;;
64959;SDS011;51487;52.266;10.542;2023-07-29T11:50:07;5.72;;;3.85;;
64959;SDS011;51487;52.266;10.542;2023-07-29T11:52:38;7.07;;;4.20;;
64959;SDS011;51487;52.266;10.542;2023-07-29T11:55:06;5.97;;;3.75;;
64959;SDS011;51487;52.266;10.542;2023-07-29T11:57:33;5.18;;;4.35;;
64959;SDS011;51487;52.266;10.542;2023-07-29T12:00:03;5.45;;;3.90;;
64959;SDS011;51487;52.266;10.542;2023-07-29T12:02:32;6.55;;;4.72;;
64959;SDS011;51487;52.266;10.542;2023-07-29T12:05:02;6.40;;;4.53;;
64959;SDS011;51487;52.266;10.542;2023-07-29T12:07:30;5.32;;;4.80;;
64959;SDS011;51487;52.266;10.542;2023-07-29T12:09:56;5.80;;;4.72;;
64959;SDS011;51487;52.266;10.542;2023-07-29T12:12:22;4.95;;;4.00;;
64959;SDS011;51487;52.266;10.542;2023-07-29T12:14:48;4.88;;;4.18;;
64959;SDS011;51487;52.266;10.542;2023-07-29T12:17:14;5.13;;;4.43;;
64959;SDS011;51487;52.266;10.542;2023-07-29T12:19:41;5.13;;;4.30;;
64959;SDS011;51487;52.266;10.542;2023-07-29T12:22:08;6.35;;;4.38;;
64959;SDS011;51487;52.266;10.542;2023-07-29T12:24:38;4.40;;;4.00;;
64959;SDS011;51487;52.266;10.542;2023-07-29T12:27:12;4.70;;;3.78;;
64959;SDS011;51487;52.266;10.542;2023-07-29T12:29:41;5.22;;;4.30;;
64959;SDS011;51487;52.266;10.542;2023-07-29T12:32:08;5.43;;;3.83;;
64959;SDS011;51487;52.266;10.542;2023-07-29T12:34:36;4.50;;;4.10;;
64959;SDS011;51487;52.266;10.542;2023-07-29T12:37:04;7.15;;;3.83;;
64959;SDS011;51487;52.266;10.542;2023-07-29T12:39:32;4.30;;;3.42;;
64959;SDS011;51487;52.266;10.542;2023-07-29T12:42:00;8.10;;;3.60;;
64959;SDS011;51487;52.266;10.542;2023-07-29T12:44:37;4.82;;;3.60;;
64959;SDS011;51487;52.266;10.542;2023-07-29T12:47:06;3.88;;;3.10;;
64959;SDS011;51487;52.266;10.542;2023-07-29T12:49:34;2.78;;;2.38;;
64959;SDS011;51487;52.266;10.542;2023-07-29T12:52:00;2.85;;;2.50;;
64959;SDS011;51487;52.266;10.542;2023-07-29T12:54:27;1.85;;;1.75;;
64959;SDS011;51487;52.266;10.542;2023-07-29T12:56:52;2.30;;;2.03;;
64959;SDS011;51487;52.266;10.542;2023-07-29T12:59:18;2.88;;;1.60;;
64959;SDS011;51487;52.266;10.542;2023-07-29T13:01:44;2.97;;;2.03;;
64959;SDS011;51487;52.266;10.542;2023-07-29T13:04:10;2.25;;;1.55;;
64959;SDS011;51487;52.266;10.542;2023-07-29T13:06:36;1.95;;;1.60;;
64959;SDS011;51487;52.266;10.542;2023-07-29T13:09:02;1.63;;;1.52;;
64959;SDS011;51487;52.266;10.542;2023-07-29T13:11:28;1.75;;;1.50;;
64959;SDS011;51487;52.266;10.542;2023-07-29T13:13:54;4.05;;;3.30;;
64959;SDS011;51487;52.266;10.542;2023-07-29T13:16:19;2.03;;;1.75;;
64959;SDS011;51487;52.266;10.542;2023-07-29T13:18:45;3.63;;;1.80;;
64959;SDS011;51487;52.266;10.542;2023-07-29T13:21:10;2.05;;;1.80;;
64959;SDS011;51487;52.266;10.542;2023-07-29T13:23:36;2.00;;;1.80;;
64959;SDS011;51487;52.266;10.542;2023-07-29T13:26:02;3.20;;;1.38;;
64959;SDS011;51487;52.266;10.542;2023-07-29T13:28:27;2.38;;;1.65;;
64959;SDS011;51487;52.266;10.542;2023-07-29T13:30:53;2.70;;;1.30;;
64959;SDS011;51487;52.266;10.542;2023-07-29T13:33:18;1.50;;;1.35;;
64959;SDS011;51487;52.266;10.542;2023-07-29T13:35:44;1.48;;;1.30;;
64959;SDS011;51487;52.266;10.542;2023-07-29T13:38:10;1.60;;;1.50;;
64959;SDS011;51487;52.266;10.542;2023-07-29T13:40:36;2.08;;;1.60;;
64959;SDS011;51487;52.266;10.542;2023-07-29T13:43:02;1.80;;;1.40;;
64959;SDS011;51487;52.266;10.542;2023-07-29T13:45:28;2.33;;;1.45;;
64959;SDS011;51487;52.266;10.542;2023-07-29T13:47:53;1.33;;;1.10;;
64959;SDS011;51487;52.266;10.542;2023-07-29T13:50:19;1.17;;;1.10;;
64959;SDS011;51487;52.266;10.542;2023-07-29T13:52:45;1.90;;;1.42;;
64959;SDS011;51487;52.266;10.542;2023-07-29T13:55:11;1.23;;;1.13;;
64959;SDS011;51487;52.266;10.542;2023-07-29T13:57:37;1.85;;;1.23;;
64959;SDS011;51487;52.266;10.542;2023-07-29T14:00:05;1.00;;;1.00;;
64959;SDS011;51487;52.266;10.542;2023-07-29T14:02:33;1.13;;;1.00;;
64959;SDS011;51487;52.266;10.542;2023-07-29T14:04:59;1.88;;;1.13;;
64959;SDS011;51487;52.266;10.542;2023-07-29T14:07:24;1.38;;;0.95;;
64959;SDS011;51487;52.266;10.542;2023-07-29T14:09:50;1.95;;;1.50;;
64959;SDS011;51487;52.266;10.542;2023-07-29T14:12:16;1.70;;;1.38;;
64959;SDS011;51487;52.266;10.542;2023-07-29T14:14:42;1.35;;;1.00;;
64959;SDS011;51487;52.266;10.542;2023-07-29T14:17:11;2.30;;;1.10;;
64959;SDS011;51487;52.266;10.542;2023-07-29T14:19:37;1.83;;;1.20;;
64959;SDS011;51487;52.266;10.542;2023-07-29T14:22:03;2.13;;;1.15;;
64959;SDS011;51487;52.266;10.542;2023-07-29T14:24:29;1.70;;;0.93;;
64959;SDS011;51487;52.266;10.542;2023-07-29T14:26:55;1.80;;;1.00;;
64959;SDS011;51487;52.266;10.542;2023-07-29T14:29:21;0.98;;;0.98;;
64959;SDS011;51487;52.266;10.542;2023-07-29T14:31:46;2.33;;;1.17;;
64959;SDS011;51487;52.266;10.542;2023-07-29T14:34:15;1.10;;;1.00;;
64959;SDS011;51487;52.266;10.542;2023-07-29T14:36:41;1.40;;;1.05;;
64959;SDS011;51487;52.266;10.542;2023-07-29T14:39:07;1.45;;;1.10;;
64959;SDS011;51487;52.266;10.542;2023-07-29T14:41:32;1.10;;;1.05;;
64959;SDS011;51487;52.266;10.542;2023-07-29T14:43:58;1.13;;;1.10;;
64959;SDS011;51487;52.266;10.542;2023-07-29T14:46:24;1.55;;;0.93;;
64959;SDS011;51487;52.266;10.542;2023-07-29T14:48:49;1.27;;;0.90;;